sensor_id;sensor_type;location;lat;lon;timestamp;temperature;humidity
11132;DHT22;5620;53.570;9.718;2023-02-12T00:01:32;8.50;1.00
11132;DHT22;5620;53.570;9.718;2023-02-12T00:03:58;8.50;80.50
11132;DHT22;5620;53.570;9.718;2023-02-12T00:06:27;8.50;99.90
11132;DHT22;5620;53.570;9.718;2023-02-12T00:08:55;8.40;99.90
11132;DHT22;5620;53.570;9.718;2023-02-12T00:11:26;8.40;99.90
11132;DHT22;5620;53.570;9.718;2023-02-12T00:13:53;8.40;1.00
11132;DHT22;5620;53.570;9.718;2023-02-12T00:16:24;8.50;1.00
11132;DHT22;5620;53.570;9.718;2023-02-12T00:18:55;8.50;1.00
11132;DHT22;5620;53.570;9.718;2023-02-12T00:21:22;8.50;1.00
11132;DHT22;5620;53.570;9.718;2023-02-12T00:23:50;8.50;1.00
11132;DHT22;5620;53.570;9.718;2023-02-12T00:26:20;8.40;1.00
11132;DHT22;5620;53.570;9.718;2023-02-12T00:28:46;8.50;1.00
11132;DHT22;5620;53.570;9.718;2023-02-12T00:31:22;8.50;87.70
11132;DHT22;5620;53.570;9.718;2023-02-12T00:33:48;8.50;99.90
11132;DHT22;5620;53.570;9.718;2023-02-12T00:36:19;8.50;99.90
11132;DHT22;5620;53.570;9.718;2023-02-12T00:38:46;8.50;99.90
11132;DHT22;5620;53.570;9.718;2023-02-12T00:41:13;8.60;71.30
11132;DHT22;5620;53.570;9.718;2023-02-12T00:43:40;8.60;1.00
11132;DHT22;5620;53.570;9.718;2023-02-12T00:46:10;8.50;1.00
11132;DHT22;5620;53.570;9.718;2023-02-12T00:48:37;8.50;1.00
11132;DHT22;5620;53.570;9.718;2023-02-12T00:51:04;8.50;99.90
11132;DHT22;5620;53.570;9.718;2023-02-12T00:53:31;8.50;99.90
11132;DHT22;5620;53.570;9.718;2023-02-12T00:55:57;8.50;52.20
11132;DHT22;5620;53.570;9.718;2023-02-12T00:58:24;8.50;27.60
11132;DHT22;5620;53.570;9.718;2023-02-12T01:00:52;8.50;1.00
11132;DHT22;5620;53.570;9.718;2023-02-12T01:03:19;8.50;1.00
11132;DHT22;5620;53.570;9.718;2023-02-12T01:05:48;8.50;1.00
11132;DHT22;5620;53.570;9.718;2023-02-12T01:08:17;8.50;1.00
11132;DHT22;5620;53.570;9.718;2023-02-12T01:10:45;8.50;1.00
11132;DHT22;5620;53.570;9.718;2023-02-12T01:13:18;8.50;1.00
11132;DHT22;5620;53.570;9.718;2023-02-12T01:15:46;8.50;50.50
11132;DHT22;5620;53.570;9.718;2023-02-12T01:18:11;8.50;1.00
11132;DHT22;5620;53.570;9.718;2023-02-12T01:20:39;8.60;36.40
11132;DHT22;5620;53.570;9.718;2023-02-12T01:23:06;8.60;1.00
11132;DHT22;5620;53.570;9.718;2023-02-12T01:25:32;8.60;1.00
11132;DHT22;5620;53.570;9.718;2023-02-12T01:27:57;8.50;99.90
11132;DHT22;5620;53.570;9.718;2023-02-12T01:30:24;8.50;99.90
11132;DHT22;5620;53.570;9.718;2023-02-12T01:32:50;8.50;99.90
11132;DHT22;5620;53.570;9.718;2023-02-12T01:35:16;8.50;1.00
11132;DHT22;5620;53.570;9.718;2023-02-12T01:37:44;8.50;99.90
11132;DHT22;5620;53.570;9.718;2023-02-12T01:40:13;8.50;99.90
11132;DHT22;5620;53.570;9.718;2023-02-12T01:42:40;8.50;99.90
11132;DHT22;5620;53.570;9.718;2023-02-12T01:47:44;8.60;1.00
11132;DHT22;5620;53.570;9.718;2023-02-12T01:50:14;8.60;1.00
11132;DHT22;5620;53.570;9.718;2023-02-12T01:52:47;8.70;99.90
11132;DHT22;5620;53.570;9.718;2023-02-12T01:55:16;8.70;99.90
11132;DHT22;5620;53.570;9.718;2023-02-12T01:57:44;8.60;1.00
11132;DHT22;5620;53.570;9.718;2023-02-12T02:00:16;8.70;99.90
11132;DHT22;5620;53.570;9.718;2023-02-12T02:02:54;8.70;84.20
11132;DHT22;5620;53.570;9.718;2023-02-12T02:05:47;8.60;1.00
11132;DHT22;5620;53.570;9.718;2023-02-12T02:08:11;8.60;99.90
11132;DHT22;5620;53.570;9.718;2023-02-12T02:10:37;8.60;74.60
11132;DHT22;5620;53.570;9.718;2023-02-12T02:13:04;8.60;1.00
11132;DHT22;5620;53.570;9.718;2023-02-12T02:15:32;8.60;1.00
11132;DHT22;5620;53.570;9.718;2023-02-12T02:18:18;8.60;1.00
11132;DHT22;5620;53.570;9.718;2023-02-12T02:27:21;8.70;1.00
11132;DHT22;5620;53.570;9.718;2023-02-12T02:39:04;8.80;99.90
11132;DHT22;5620;53.570;9.718;2023-02-12T02:41:47;8.80;99.90
11132;DHT22;5620;53.570;9.718;2023-02-12T02:44:18;8.90;99.90
11132;DHT22;5620;53.570;9.718;2023-02-12T02:46:48;8.90;58.00
11132;DHT22;5620;53.570;9.718;2023-02-12T02:52:17;8.90;99.90
11132;DHT22;5620;53.570;9.718;2023-02-12T02:54:48;9.00;99.90
11132;DHT22;5620;53.570;9.718;2023-02-12T02:57:21;9.10;97.40
11132;DHT22;5620;53.570;9.718;2023-02-12T02:59:57;9.10;1.00
11132;DHT22;5620;53.570;9.718;2023-02-12T03:02:31;9.10;1.00
11132;DHT22;5620;53.570;9.718;2023-02-12T03:05:05;9.20;1.00
11132;DHT22;5620;53.570;9.718;2023-02-12T03:07:51;9.20;1.00
11132;DHT22;5620;53.570;9.718;2023-02-12T03:10:28;9.20;1.00
11132;DHT22;5620;53.570;9.718;2023-02-12T03:15:47;9.30;1.00
11132;DHT22;5620;53.570;9.718;2023-02-12T03:18:27;9.30;1.00
11132;DHT22;5620;53.570;9.718;2023-02-12T03:20:58;9.30;99.90
11132;DHT22;5620;53.570;9.718;2023-02-12T03:23:30;9.30;99.90
11132;DHT22;5620;53.570;9.718;2023-02-12T03:26:17;9.30;99.90
11132;DHT22;5620;53.570;9.718;2023-02-12T03:28:46;9.30;99.90
11132;DHT22;5620;53.570;9.718;2023-02-12T03:31:35;9.30;99.90
11132;DHT22;5620;53.570;9.718;2023-02-12T03:40:13;9.40;1.00
11132;DHT22;5620;53.570;9.718;2023-02-12T03:48:55;9.30;1.00
11132;DHT22;5620;53.570;9.718;2023-02-12T03:51:43;9.20;1.00
11132;DHT22;5620;53.570;9.718;2023-02-12T03:54:17;9.20;1.00
11132;DHT22;5620;53.570;9.718;2023-02-12T03:57:08;9.30;1.00
11132;DHT22;5620;53.570;9.718;2023-02-12T03:59:37;9.30;1.00
11132;DHT22;5620;53.570;9.718;2023-02-12T04:02:04;9.30;1.00
11132;DHT22;5620;53.570;9.718;2023-02-12T04:04:31;9.30;1.00
11132;DHT22;5620;53.570;9.718;2023-02-12T04:06:58;9.30;1.00
11132;DHT22;5620;53.570;9.718;2023-02-12T04:09:27;9.40;1.00
11132;DHT22;5620;53.570;9.718;2023-02-12T04:12:18;9.40;1.00
11132;DHT22;5620;53.570;9.718;2023-02-12T04:15:27;9.40;1.00
11132;DHT22;5620;53.570;9.718;2023-02-12T04:23:43;9.40;99.90
11132;DHT22;5620;53.570;9.718;2023-02-12T04:26:38;9.30;99.90
11132;DHT22;5620;53.570;9.718;2023-02-12T04:32:52;9.30;99.90
11132;DHT22;5620;53.570;9.718;2023-02-12T04:35:35;9.30;92.70
11132;DHT22;5620;53.570;9.718;2023-02-12T04:41:05;9.20;99.90
11132;DHT22;5620;53.570;9.718;2023-02-12T04:43:34;9.20;99.90
11132;DHT22;5620;53.570;9.718;2023-02-12T04:46:00;9.20;99.90
11132;DHT22;5620;53.570;9.718;2023-02-12T04:48:29;9.20;99.90
11132;DHT22;5620;53.570;9.718;2023-02-12T04:50:57;9.20;99.90
11132;DHT22;5620;53.570;9.718;2023-02-12T04:53:24;9.10;99.90
11132;DHT22;5620;53.570;9.718;2023-02-12T04:55:52;9.20;99.90
11132;DHT22;5620;53.570;9.718;2023-02-12T04:58:18;9.20;99.90
11132;DHT22;5620;53.570;9.718;2023-02-12T05:00:45;9.30;99.90
11132;DHT22;5620;53.570;9.718;2023-02-12T05:03:12;9.30;99.90
11132;DHT22;5620;53.570;9.718;2023-02-12T05:05:41;9.30;84.90
11132;DHT22;5620;53.570;9.718;2023-02-12T05:08:06;9.20;17.90
11132;DHT22;5620;53.570;9.718;2023-02-12T05:10:33;9.20;99.90
11132;DHT22;5620;53.570;9.718;2023-02-12T05:12:58;9.20;99.60
11132;DHT22;5620;53.570;9.718;2023-02-12T05:15:25;9.20;17.00
11132;DHT22;5620;53.570;9.718;2023-02-12T05:17:53;9.20;99.90
11132;DHT22;5620;53.570;9.718;2023-02-12T05:20:18;9.20;97.90
11132;DHT22;5620;53.570;9.718;2023-02-12T05:22:49;9.20;99.90
11132;DHT22;5620;53.570;9.718;2023-02-12T05:25:16;9.20;65.30
11132;DHT22;5620;53.570;9.718;2023-02-12T05:27:42;9.20;90.70
11132;DHT22;5620;53.570;9.718;2023-02-12T05:30:09;9.20;1.00
11132;DHT22;5620;53.570;9.718;2023-02-12T05:32:38;9.10;1.00
11132;DHT22;5620;53.570;9.718;2023-02-12T05:35:07;9.10;1.00
11132;DHT22;5620;53.570;9.718;2023-02-12T05:37:38;9.10;47.40
11132;DHT22;5620;53.570;9.718;2023-02-12T05:40:05;9.10;64.00
11132;DHT22;5620;53.570;9.718;2023-02-12T05:42:31;9.00;92.70
11132;DHT22;5620;53.570;9.718;2023-02-12T05:44:56;9.00;61.30
11132;DHT22;5620;53.570;9.718;2023-02-12T05:47:23;9.00;99.90
11132;DHT22;5620;53.570;9.718;2023-02-12T05:49:55;9.00;99.90
11132;DHT22;5620;53.570;9.718;2023-02-12T05:52:21;9.00;97.00
11132;DHT22;5620;53.570;9.718;2023-02-12T05:54:48;9.00;99.90
11132;DHT22;5620;53.570;9.718;2023-02-12T05:57:16;8.90;99.90
11132;DHT22;5620;53.570;9.718;2023-02-12T05:59:42;9.00;99.90
11132;DHT22;5620;53.570;9.718;2023-02-12T06:02:09;9.00;99.90
11132;DHT22;5620;53.570;9.718;2023-02-12T06:04:35;9.00;71.10
11132;DHT22;5620;53.570;9.718;2023-02-12T06:07:02;9.00;93.80
11132;DHT22;5620;53.570;9.718;2023-02-12T06:09:30;9.00;99.90
11132;DHT22;5620;53.570;9.718;2023-02-12T06:11:58;9.00;99.90
11132;DHT22;5620;53.570;9.718;2023-02-12T06:14:25;9.10;99.90
11132;DHT22;5620;53.570;9.718;2023-02-12T06:16:53;9.00;10.00
11132;DHT22;5620;53.570;9.718;2023-02-12T06:19:21;9.00;99.90
11132;DHT22;5620;53.570;9.718;2023-02-12T06:21:49;9.00;99.90
11132;DHT22;5620;53.570;9.718;2023-02-12T06:24:16;9.00;99.90
11132;DHT22;5620;53.570;9.718;2023-02-12T06:26:43;9.00;99.90
11132;DHT22;5620;53.570;9.718;2023-02-12T06:29:10;9.00;99.90
11132;DHT22;5620;53.570;9.718;2023-02-12T06:31:37;9.00;99.90
11132;DHT22;5620;53.570;9.718;2023-02-12T06:34:06;9.00;99.90
11132;DHT22;5620;53.570;9.718;2023-02-12T06:36:41;9.00;99.90
11132;DHT22;5620;53.570;9.718;2023-02-12T06:39:07;9.10;1.00
11132;DHT22;5620;53.570;9.718;2023-02-12T06:41:33;9.20;1.00
11132;DHT22;5620;53.570;9.718;2023-02-12T06:44:01;9.30;99.90
11132;DHT22;5620;53.570;9.718;2023-02-12T06:46:28;9.30;99.90
11132;DHT22;5620;53.570;9.718;2023-02-12T06:48:57;9.30;99.90
11132;DHT22;5620;53.570;9.718;2023-02-12T06:51:24;9.40;99.90
11132;DHT22;5620;53.570;9.718;2023-02-12T06:53:51;9.40;99.90
11132;DHT22;5620;53.570;9.718;2023-02-12T06:56:23;9.30;53.00
11132;DHT22;5620;53.570;9.718;2023-02-12T06:58:55;9.40;89.60
11132;DHT22;5620;53.570;9.718;2023-02-12T07:01:26;9.30;99.90
11132;DHT22;5620;53.570;9.718;2023-02-12T07:04:00;9.40;93.00
11132;DHT22;5620;53.570;9.718;2023-02-12T07:06:28;9.30;8.00
11132;DHT22;5620;53.570;9.718;2023-02-12T07:08:56;9.30;97.40
11132;DHT22;5620;53.570;9.718;2023-02-12T07:11:27;9.30;99.90
11132;DHT22;5620;53.570;9.718;2023-02-12T07:13:53;9.40;99.90
11132;DHT22;5620;53.570;9.718;2023-02-12T07:16:21;9.40;99.90
11132;DHT22;5620;53.570;9.718;2023-02-12T07:18:49;9.50;97.30
11132;DHT22;5620;53.570;9.718;2023-02-12T07:21:19;9.50;99.80
11132;DHT22;5620;53.570;9.718;2023-02-12T07:23:51;9.40;73.70
11132;DHT22;5620;53.570;9.718;2023-02-12T07:26:20;9.40;76.90
11132;DHT22;5620;53.570;9.718;2023-02-12T07:28:47;9.50;99.90
11132;DHT22;5620;53.570;9.718;2023-02-12T07:31:23;9.60;99.90
11132;DHT22;5620;53.570;9.718;2023-02-12T07:33:54;9.70;55.70
11132;DHT22;5620;53.570;9.718;2023-02-12T07:36:32;9.70;84.70
11132;DHT22;5620;53.570;9.718;2023-02-12T07:39:03;9.70;1.00
11132;DHT22;5620;53.570;9.718;2023-02-12T07:41:34;9.80;99.90
11132;DHT22;5620;53.570;9.718;2023-02-12T07:44:06;9.80;1.00
11132;DHT22;5620;53.570;9.718;2023-02-12T07:46:45;9.90;22.60
11132;DHT22;5620;53.570;9.718;2023-02-12T07:49:13;9.90;1.00
11132;DHT22;5620;53.570;9.718;2023-02-12T07:51:44;10.00;1.00
11132;DHT22;5620;53.570;9.718;2023-02-12T07:54:12;10.00;1.00
11132;DHT22;5620;53.570;9.718;2023-02-12T07:56:39;10.00;32.50
11132;DHT22;5620;53.570;9.718;2023-02-12T07:59:09;10.10;97.80
11132;DHT22;5620;53.570;9.718;2023-02-12T08:01:38;10.20;1.00
11132;DHT22;5620;53.570;9.718;2023-02-12T08:04:09;10.20;1.00
11132;DHT22;5620;53.570;9.718;2023-02-12T08:06:42;10.30;1.00
11132;DHT22;5620;53.570;9.718;2023-02-12T08:09:10;10.30;1.00
11132;DHT22;5620;53.570;9.718;2023-02-12T08:11:39;10.30;99.90
11132;DHT22;5620;53.570;9.718;2023-02-12T08:14:12;10.30;1.00
11132;DHT22;5620;53.570;9.718;2023-02-12T08:16:40;10.30;99.90
11132;DHT22;5620;53.570;9.718;2023-02-12T08:19:06;10.40;99.90
11132;DHT22;5620;53.570;9.718;2023-02-12T08:21:32;10.40;99.90
11132;DHT22;5620;53.570;9.718;2023-02-12T08:23:59;10.40;99.90
11132;DHT22;5620;53.570;9.718;2023-02-12T08:26:32;10.40;99.90
11132;DHT22;5620;53.570;9.718;2023-02-12T08:29:17;10.40;99.90
11132;DHT22;5620;53.570;9.718;2023-02-12T08:31:47;10.50;99.90
11132;DHT22;5620;53.570;9.718;2023-02-12T08:37:06;10.50;99.90
11132;DHT22;5620;53.570;9.718;2023-02-12T08:39:34;10.60;99.90
11132;DHT22;5620;53.570;9.718;2023-02-12T08:42:00;10.50;99.90
11132;DHT22;5620;53.570;9.718;2023-02-12T08:44:29;10.60;99.90
11132;DHT22;5620;53.570;9.718;2023-02-12T08:46:57;10.70;99.90
11132;DHT22;5620;53.570;9.718;2023-02-12T08:49:27;10.70;1.00
11132;DHT22;5620;53.570;9.718;2023-02-12T08:51:55;10.70;1.00
11132;DHT22;5620;53.570;9.718;2023-02-12T08:54:28;10.80;62.10
11132;DHT22;5620;53.570;9.718;2023-02-12T08:56:57;10.90;1.00
11132;DHT22;5620;53.570;9.718;2023-02-12T08:59:25;10.90;1.00
11132;DHT22;5620;53.570;9.718;2023-02-12T09:01:51;10.90;1.00
11132;DHT22;5620;53.570;9.718;2023-02-12T09:04:21;10.90;1.00
11132;DHT22;5620;53.570;9.718;2023-02-12T09:06:49;11.00;1.00
11132;DHT22;5620;53.570;9.718;2023-02-12T09:09:20;11.00;99.90
11132;DHT22;5620;53.570;9.718;2023-02-12T09:11:47;11.00;99.90
11132;DHT22;5620;53.570;9.718;2023-02-12T09:14:15;11.00;99.90
11132;DHT22;5620;53.570;9.718;2023-02-12T09:16:45;11.00;70.80
11132;DHT22;5620;53.570;9.718;2023-02-12T09:19:12;10.90;99.90
11132;DHT22;5620;53.570;9.718;2023-02-12T09:21:40;10.90;99.90
11132;DHT22;5620;53.570;9.718;2023-02-12T09:24:07;11.00;99.90
11132;DHT22;5620;53.570;9.718;2023-02-12T09:26:34;11.00;99.90
11132;DHT22;5620;53.570;9.718;2023-02-12T09:29:03;11.00;99.90
11132;DHT22;5620;53.570;9.718;2023-02-12T09:31:30;11.10;99.90
11132;DHT22;5620;53.570;9.718;2023-02-12T09:34:05;11.20;50.30
11132;DHT22;5620;53.570;9.718;2023-02-12T09:36:47;11.30;6.70
11132;DHT22;5620;53.570;9.718;2023-02-12T09:39:14;11.40;60.20
11132;DHT22;5620;53.570;9.718;2023-02-12T09:44:46;11.60;1.00
11132;DHT22;5620;53.570;9.718;2023-02-12T09:48:26;11.60;1.00
11132;DHT22;5620;53.570;9.718;2023-02-12T09:53:19;11.50;99.90
11132;DHT22;5620;53.570;9.718;2023-02-12T09:55:48;11.40;99.90
11132;DHT22;5620;53.570;9.718;2023-02-12T09:58:30;11.30;99.90
11132;DHT22;5620;53.570;9.718;2023-02-12T10:00:57;11.30;1.00
11132;DHT22;5620;53.570;9.718;2023-02-12T10:03:23;11.40;1.00
11132;DHT22;5620;53.570;9.718;2023-02-12T10:06:04;11.50;99.90
11132;DHT22;5620;53.570;9.718;2023-02-12T10:14:48;11.40;99.90
11132;DHT22;5620;53.570;9.718;2023-02-12T10:22:25;11.30;67.10
11132;DHT22;5620;53.570;9.718;2023-02-12T10:25:02;11.30;93.90
11132;DHT22;5620;53.570;9.718;2023-02-12T10:27:39;11.40;99.90
11132;DHT22;5620;53.570;9.718;2023-02-12T10:30:27;11.40;79.30
11132;DHT22;5620;53.570;9.718;2023-02-12T10:33:08;11.40;1.00
11132;DHT22;5620;53.570;9.718;2023-02-12T10:35:35;11.20;1.00
11132;DHT22;5620;53.570;9.718;2023-02-12T10:38:31;11.20;41.80
11132;DHT22;5620;53.570;9.718;2023-02-12T10:40:58;11.20;4.80
11132;DHT22;5620;53.570;9.718;2023-02-12T10:43:24;11.30;92.50
11132;DHT22;5620;53.570;9.718;2023-02-12T10:45:49;11.40;41.70
11132;DHT22;5620;53.570;9.718;2023-02-12T10:53:41;11.50;1.00
11132;DHT22;5620;53.570;9.718;2023-02-12T10:58:53;11.80;1.00
11132;DHT22;5620;53.570;9.718;2023-02-12T11:01:37;11.80;1.00
11132;DHT22;5620;53.570;9.718;2023-02-12T11:04:32;11.80;1.00
11132;DHT22;5620;53.570;9.718;2023-02-12T11:07:04;11.80;1.00
11132;DHT22;5620;53.570;9.718;2023-02-12T11:12:39;11.80;99.90
11132;DHT22;5620;53.570;9.718;2023-02-12T11:18:04;11.70;1.00
11132;DHT22;5620;53.570;9.718;2023-02-12T11:20:53;11.60;1.00
11132;DHT22;5620;53.570;9.718;2023-02-12T11:23:40;11.60;1.00
11132;DHT22;5620;53.570;9.718;2023-02-12T11:29:01;11.60;1.00
11132;DHT22;5620;53.570;9.718;2023-02-12T11:31:33;11.70;1.00
11132;DHT22;5620;53.570;9.718;2023-02-12T11:34:16;11.70;1.00
11132;DHT22;5620;53.570;9.718;2023-02-12T11:36:49;11.80;1.00
11132;DHT22;5620;53.570;9.718;2023-02-12T11:39:25;11.80;99.90
11132;DHT22;5620;53.570;9.718;2023-02-12T11:41:56;11.70;99.90
11132;DHT22;5620;53.570;9.718;2023-02-12T11:44:29;11.70;99.90
11132;DHT22;5620;53.570;9.718;2023-02-12T11:49:36;11.50;99.90
11132;DHT22;5620;53.570;9.718;2023-02-12T11:52:22;11.50;99.90
11132;DHT22;5620;53.570;9.718;2023-02-12T11:54:50;11.50;1.00
11132;DHT22;5620;53.570;9.718;2023-02-12T12:00:31;11.50;99.90
11132;DHT22;5620;53.570;9.718;2023-02-12T12:08:54;11.20;99.90
11132;DHT22;5620;53.570;9.718;2023-02-12T12:14:36;11.00;1.00
11132;DHT22;5620;53.570;9.718;2023-02-12T12:17:12;10.90;1.00
11132;DHT22;5620;53.570;9.718;2023-02-12T12:23:05;11.00;1.00
11132;DHT22;5620;53.570;9.718;2023-02-12T12:25:48;11.10;1.00
11132;DHT22;5620;53.570;9.718;2023-02-12T12:31:27;11.40;1.00
11132;DHT22;5620;53.570;9.718;2023-02-12T12:34:14;11.60;1.00
11132;DHT22;5620;53.570;9.718;2023-02-12T12:43:17;11.90;99.90
11132;DHT22;5620;53.570;9.718;2023-02-12T12:46:14;11.90;99.90
11132;DHT22;5620;53.570;9.718;2023-02-12T12:48:59;11.80;99.90
11132;DHT22;5620;53.570;9.718;2023-02-12T12:52:20;11.70;99.90
11132;DHT22;5620;53.570;9.718;2023-02-12T12:58:11;11.50;99.90
11132;DHT22;5620;53.570;9.718;2023-02-12T13:12:54;10.40;1.00
11132;DHT22;5620;53.570;9.718;2023-02-12T13:27:09;11.10;1.00
11132;DHT22;5620;53.570;9.718;2023-02-12T13:32:41;11.20;1.00
11132;DHT22;5620;53.570;9.718;2023-02-12T13:35:17;11.20;1.00
11132;DHT22;5620;53.570;9.718;2023-02-12T13:37:48;11.10;1.00
11132;DHT22;5620;53.570;9.718;2023-02-12T13:40:21;11.10;1.00
11132;DHT22;5620;53.570;9.718;2023-02-12T13:48:51;11.10;1.00
11132;DHT22;5620;53.570;9.718;2023-02-12T13:51:42;11.20;1.00
11132;DHT22;5620;53.570;9.718;2023-02-12T13:57:17;11.10;1.00
11132;DHT22;5620;53.570;9.718;2023-02-12T13:59:50;11.10;1.00
11132;DHT22;5620;53.570;9.718;2023-02-12T14:05:26;11.00;1.00
11132;DHT22;5620;53.570;9.718;2023-02-12T14:08:26;11.00;1.00
11132;DHT22;5620;53.570;9.718;2023-02-12T14:11:23;11.20;1.00
11132;DHT22;5620;53.570;9.718;2023-02-12T14:14:10;11.40;1.00
11132;DHT22;5620;53.570;9.718;2023-02-12T14:16:39;11.50;1.00
11132;DHT22;5620;53.570;9.718;2023-02-12T14:25:42;11.20;99.90
11132;DHT22;5620;53.570;9.718;2023-02-12T14:28:22;11.20;99.90
11132;DHT22;5620;53.570;9.718;2023-02-12T14:31:27;11.20;99.90
11132;DHT22;5620;53.570;9.718;2023-02-12T14:36:40;11.30;1.00
11132;DHT22;5620;53.570;9.718;2023-02-12T14:44:57;11.50;99.90
11132;DHT22;5620;53.570;9.718;2023-02-12T14:50:24;11.40;99.90
11132;DHT22;5620;53.570;9.718;2023-02-12T14:53:32;11.50;99.90
11132;DHT22;5620;53.570;9.718;2023-02-12T14:56:01;11.70;99.90
11132;DHT22;5620;53.570;9.718;2023-02-12T14:58:29;11.80;99.90
11132;DHT22;5620;53.570;9.718;2023-02-12T15:01:09;11.80;99.90
11132;DHT22;5620;53.570;9.718;2023-02-12T15:03:47;11.80;99.90
11132;DHT22;5620;53.570;9.718;2023-02-12T15:06:47;11.90;89.80
11132;DHT22;5620;53.570;9.718;2023-02-12T15:09:57;11.90;1.00
11132;DHT22;5620;53.570;9.718;2023-02-12T15:12:35;11.90;1.00
11132;DHT22;5620;53.570;9.718;2023-02-12T15:15:18;11.90;1.00
11132;DHT22;5620;53.570;9.718;2023-02-12T15:26:40;11.30;1.00
11132;DHT22;5620;53.570;9.718;2023-02-12T15:29:26;11.20;1.00
11132;DHT22;5620;53.570;9.718;2023-02-12T15:32:01;11.20;1.00
11132;DHT22;5620;53.570;9.718;2023-02-12T15:34:31;11.10;1.00
11132;DHT22;5620;53.570;9.718;2023-02-12T15:37:01;11.10;1.00
11132;DHT22;5620;53.570;9.718;2023-02-12T15:39:40;11.00;1.00
11132;DHT22;5620;53.570;9.718;2023-02-12T15:45:31;10.80;1.00
11132;DHT22;5620;53.570;9.718;2023-02-12T15:48:21;10.80;1.00
11132;DHT22;5620;53.570;9.718;2023-02-12T15:51:07;10.70;1.00
11132;DHT22;5620;53.570;9.718;2023-02-12T15:53:37;10.70;1.00
11132;DHT22;5620;53.570;9.718;2023-02-12T15:56:09;10.70;1.00
11132;DHT22;5620;53.570;9.718;2023-02-12T15:58:59;10.50;1.00
11132;DHT22;5620;53.570;9.718;2023-02-12T16:01:32;10.50;17.80
11132;DHT22;5620;53.570;9.718;2023-02-12T16:04:09;10.50;9.50
11132;DHT22;5620;53.570;9.718;2023-02-12T16:06:36;10.50;15.80
11132;DHT22;5620;53.570;9.718;2023-02-12T16:09:25;10.40;20.90
11132;DHT22;5620;53.570;9.718;2023-02-12T16:11:55;10.40;67.80
11132;DHT22;5620;53.570;9.718;2023-02-12T16:17:47;10.40;99.90
11132;DHT22;5620;53.570;9.718;2023-02-12T16:20:22;10.40;99.90
11132;DHT22;5620;53.570;9.718;2023-02-12T16:22:51;10.40;94.80
11132;DHT22;5620;53.570;9.718;2023-02-12T16:25:23;10.40;82.80
11132;DHT22;5620;53.570;9.718;2023-02-12T16:28:16;10.30;99.90
11132;DHT22;5620;53.570;9.718;2023-02-12T16:30:47;10.30;99.90
11132;DHT22;5620;53.570;9.718;2023-02-12T16:38:57;10.10;99.90
11132;DHT22;5620;53.570;9.718;2023-02-12T16:41:29;10.10;99.90
11132;DHT22;5620;53.570;9.718;2023-02-12T16:46:44;10.00;99.90
11132;DHT22;5620;53.570;9.718;2023-02-12T16:49:28;10.00;99.90
11132;DHT22;5620;53.570;9.718;2023-02-12T16:52:57;10.00;99.90
11132;DHT22;5620;53.570;9.718;2023-02-12T16:55:12;10.00;99.90
11132;DHT22;5620;53.570;9.718;2023-02-12T16:57:41;10.00;99.90
11132;DHT22;5620;53.570;9.718;2023-02-12T17:00:08;10.00;99.90
11132;DHT22;5620;53.570;9.718;2023-02-12T17:02:36;10.00;99.90
11132;DHT22;5620;53.570;9.718;2023-02-12T17:05:03;10.00;99.90
11132;DHT22;5620;53.570;9.718;2023-02-12T17:07:30;10.10;99.90
11132;DHT22;5620;53.570;9.718;2023-02-12T17:09:59;10.10;99.90
11132;DHT22;5620;53.570;9.718;2023-02-12T17:12:27;10.10;99.90
11132;DHT22;5620;53.570;9.718;2023-02-12T17:14:56;10.10;99.90
11132;DHT22;5620;53.570;9.718;2023-02-12T17:17:24;10.10;99.90
11132;DHT22;5620;53.570;9.718;2023-02-12T17:19:49;10.10;99.90
11132;DHT22;5620;53.570;9.718;2023-02-12T17:22:22;10.00;99.90
11132;DHT22;5620;53.570;9.718;2023-02-12T17:24:49;10.00;99.90
11132;DHT22;5620;53.570;9.718;2023-02-12T17:27:17;10.00;99.90
11132;DHT22;5620;53.570;9.718;2023-02-12T17:29:44;10.00;99.90
11132;DHT22;5620;53.570;9.718;2023-02-12T17:32:12;9.90;99.90
11132;DHT22;5620;53.570;9.718;2023-02-12T17:34:40;9.90;99.90
11132;DHT22;5620;53.570;9.718;2023-02-12T17:37:06;9.80;99.90
11132;DHT22;5620;53.570;9.718;2023-02-12T17:39:34;9.80;1.00
11132;DHT22;5620;53.570;9.718;2023-02-12T17:42:02;9.70;1.00
11132;DHT22;5620;53.570;9.718;2023-02-12T17:44:30;9.80;1.00
11132;DHT22;5620;53.570;9.718;2023-02-12T17:46:55;9.80;1.00
11132;DHT22;5620;53.570;9.718;2023-02-12T17:49:24;9.80;1.00
11132;DHT22;5620;53.570;9.718;2023-02-12T17:51:52;9.80;1.00
11132;DHT22;5620;53.570;9.718;2023-02-12T17:54:20;9.80;1.00
11132;DHT22;5620;53.570;9.718;2023-02-12T17:56:47;9.70;1.00
11132;DHT22;5620;53.570;9.718;2023-02-12T17:59:15;9.70;1.00
11132;DHT22;5620;53.570;9.718;2023-02-12T18:01:41;9.70;1.00
11132;DHT22;5620;53.570;9.718;2023-02-12T18:04:09;9.70;1.00
11132;DHT22;5620;53.570;9.718;2023-02-12T18:06:38;9.70;1.00
11132;DHT22;5620;53.570;9.718;2023-02-12T18:09:05;9.70;1.00
11132;DHT22;5620;53.570;9.718;2023-02-12T18:11:32;9.60;1.00
11132;DHT22;5620;53.570;9.718;2023-02-12T18:13:59;9.60;1.00
11132;DHT22;5620;53.570;9.718;2023-02-12T18:16:29;9.60;1.00
11132;DHT22;5620;53.570;9.718;2023-02-12T18:18:55;9.70;1.00
11132;DHT22;5620;53.570;9.718;2023-02-12T18:21:22;9.70;1.00
11132;DHT22;5620;53.570;9.718;2023-02-12T18:23:51;9.70;1.00
11132;DHT22;5620;53.570;9.718;2023-02-12T18:26:22;9.70;1.00
11132;DHT22;5620;53.570;9.718;2023-02-12T18:28:49;9.70;1.00
11132;DHT22;5620;53.570;9.718;2023-02-12T18:31:18;9.60;1.00
11132;DHT22;5620;53.570;9.718;2023-02-12T18:33:45;9.70;1.00
11132;DHT22;5620;53.570;9.718;2023-02-12T18:36:23;9.60;1.00
11132;DHT22;5620;53.570;9.718;2023-02-12T18:38:50;9.70;1.00
11132;DHT22;5620;53.570;9.718;2023-02-12T18:41:23;9.70;1.00
11132;DHT22;5620;53.570;9.718;2023-02-12T18:43:52;9.70;1.00
11132;DHT22;5620;53.570;9.718;2023-02-12T18:46:24;9.80;1.00
11132;DHT22;5620;53.570;9.718;2023-02-12T18:48:50;9.80;1.00
11132;DHT22;5620;53.570;9.718;2023-02-12T18:51:22;9.90;1.00
11132;DHT22;5620;53.570;9.718;2023-02-12T18:54:19;9.80;1.00
11132;DHT22;5620;53.570;9.718;2023-02-12T18:56:45;9.90;1.00
11132;DHT22;5620;53.570;9.718;2023-02-12T18:59:12;9.80;1.00
11132;DHT22;5620;53.570;9.718;2023-02-12T19:01:39;9.80;1.00
11132;DHT22;5620;53.570;9.718;2023-02-12T19:04:09;9.90;1.00
11132;DHT22;5620;53.570;9.718;2023-02-12T19:06:51;9.80;1.00
11132;DHT22;5620;53.570;9.718;2023-02-12T19:09:25;9.80;1.00
11132;DHT22;5620;53.570;9.718;2023-02-12T19:11:55;9.80;1.00
11132;DHT22;5620;53.570;9.718;2023-02-12T19:14:22;9.80;1.00
11132;DHT22;5620;53.570;9.718;2023-02-12T19:16:52;9.80;1.00
11132;DHT22;5620;53.570;9.718;2023-02-12T19:19:20;9.80;1.00
11132;DHT22;5620;53.570;9.718;2023-02-12T19:21:47;9.90;1.00
11132;DHT22;5620;53.570;9.718;2023-02-12T19:24:15;9.80;1.00
11132;DHT22;5620;53.570;9.718;2023-02-12T19:26:43;9.80;1.00
11132;DHT22;5620;53.570;9.718;2023-02-12T19:29:11;9.80;1.00
11132;DHT22;5620;53.570;9.718;2023-02-12T19:31:43;9.70;1.00
11132;DHT22;5620;53.570;9.718;2023-02-12T19:34:14;9.70;1.00
11132;DHT22;5620;53.570;9.718;2023-02-12T19:36:41;9.70;1.00
11132;DHT22;5620;53.570;9.718;2023-02-12T19:39:12;9.70;1.00
11132;DHT22;5620;53.570;9.718;2023-02-12T19:41:40;9.70;1.00
11132;DHT22;5620;53.570;9.718;2023-02-12T19:44:12;9.70;11.90
11132;DHT22;5620;53.570;9.718;2023-02-12T19:46:41;9.70;1.00
11132;DHT22;5620;53.570;9.718;2023-02-12T19:49:17;9.70;1.00
11132;DHT22;5620;53.570;9.718;2023-02-12T19:51:48;9.70;1.00